sensor_id;sensor_type;location;lat;lon;timestamp;P1;durP1;ratioP1;P2;durP2;ratioP2
20810;SDS011;10566;52.928;10.522;2023-04-16T00:00:59;64.47;;;37.97;;
20810;SDS011;10566;52.928;10.522;2023-04-16T00:03:25;67.63;;;38.00;;
20810;SDS011;10566;52.928;10.522;2023-04-16T00:05:51;66.13;;;39.03;;
20810;SDS011;10566;52.928;10.522;2023-04-16T00:08:20;65.87;;;38.57;;
20810;SDS011;10566;52.928;10.522;2023-04-16T00:10:48;66.13;;;38.87;;
20810;SDS011;10566;52.928;10.522;2023-04-16T00:13:14;66.27;;;36.93;;
20810;SDS011;10566;52.928;10.522;2023-04-16T00:15:40;60.90;;;36.20;;
20810;SDS011;10566;52.928;10.522;2023-04-16T00:18:06;60.50;;;35.83;;
20810;SDS011;10566;52.928;10.522;2023-04-16T00:20:32;59.23;;;35.93;;
20810;SDS011;10566;52.928;10.522;2023-04-16T00:22:58;54.40;;;34.50;;
20810;SDS011;10566;52.928;10.522;2023-04-16T00:25:24;61.90;;;35.07;;
20810;SDS011;10566;52.928;10.522;2023-04-16T00:27:50;61.53;;;36.03;;
20810;SDS011;10566;52.928;10.522;2023-04-16T00:30:16;59.40;;;34.90;;
20810;SDS011;10566;52.928;10.522;2023-04-16T00:32:42;60.77;;;35.23;;
20810;SDS011;10566;52.928;10.522;2023-04-16T00:35:08;64.17;;;35.10;;
20810;SDS011;10566;52.928;10.522;2023-04-16T00:37:34;64.50;;;36.47;;
20810;SDS011;10566;52.928;10.522;2023-04-16T00:40:00;61.07;;;35.03;;
20810;SDS011;10566;52.928;10.522;2023-04-16T00:42:26;62.77;;;35.47;;
20810;SDS011;10566;52.928;10.522;2023-04-16T00:44:52;58.63;;;34.47;;
20810;SDS011;10566;52.928;10.522;2023-04-16T00:47:18;54.53;;;34.57;;
20810;SDS011;10566;52.928;10.522;2023-04-16T00:49:44;60.80;;;35.00;;
20810;SDS011;10566;52.928;10.522;2023-04-16T00:52:10;64.03;;;33.40;;
20810;SDS011;10566;52.928;10.522;2023-04-16T00:54:36;55.07;;;33.30;;
20810;SDS011;10566;52.928;10.522;2023-04-16T00:57:02;59.77;;;33.97;;
20810;SDS011;10566;52.928;10.522;2023-04-16T00:59:28;51.73;;;32.00;;
20810;SDS011;10566;52.928;10.522;2023-04-16T01:01:54;54.20;;;32.53;;
20810;SDS011;10566;52.928;10.522;2023-04-16T01:04:20;60.50;;;33.87;;
20810;SDS011;10566;52.928;10.522;2023-04-16T01:06:46;66.47;;;34.40;;
20810;SDS011;10566;52.928;10.522;2023-04-16T01:09:12;61.07;;;35.27;;
20810;SDS011;10566;52.928;10.522;2023-04-16T01:11:38;61.97;;;34.63;;
20810;SDS011;10566;52.928;10.522;2023-04-16T01:14:04;60.57;;;35.83;;
20810;SDS011;10566;52.928;10.522;2023-04-16T01:16:31;62.67;;;34.70;;
20810;SDS011;10566;52.928;10.522;2023-04-16T01:18:57;54.30;;;32.17;;
20810;SDS011;10566;52.928;10.522;2023-04-16T01:21:23;62.90;;;32.90;;
20810;SDS011;10566;52.928;10.522;2023-04-16T01:23:49;59.87;;;32.83;;
20810;SDS011;10566;52.928;10.522;2023-04-16T01:26:15;58.13;;;33.87;;
20810;SDS011;10566;52.928;10.522;2023-04-16T01:28:41;57.83;;;33.33;;
20810;SDS011;10566;52.928;10.522;2023-04-16T01:31:07;58.37;;;34.07;;
20810;SDS011;10566;52.928;10.522;2023-04-16T01:33:33;63.03;;;33.70;;
20810;SDS011;10566;52.928;10.522;2023-04-16T01:35:59;60.67;;;34.90;;
20810;SDS011;10566;52.928;10.522;2023-04-16T01:38:25;59.37;;;34.47;;
20810;SDS011;10566;52.928;10.522;2023-04-16T01:40:57;63.27;;;35.77;;
20810;SDS011;10566;52.928;10.522;2023-04-16T01:43:24;66.17;;;34.83;;
20810;SDS011;10566;52.928;10.522;2023-04-16T01:45:50;60.30;;;34.57;;
20810;SDS011;10566;52.928;10.522;2023-04-16T01:48:16;63.03;;;34.80;;
20810;SDS011;10566;52.928;10.522;2023-04-16T01:50:42;59.60;;;32.70;;
20810;SDS011;10566;52.928;10.522;2023-04-16T01:53:09;62.93;;;35.10;;
20810;SDS011;10566;52.928;10.522;2023-04-16T01:55:35;64.07;;;35.23;;
20810;SDS011;10566;52.928;10.522;2023-04-16T01:58:01;64.60;;;35.97;;
20810;SDS011;10566;52.928;10.522;2023-04-16T02:00:27;69.13;;;36.50;;
20810;SDS011;10566;52.928;10.522;2023-04-16T02:02:53;63.97;;;35.13;;
20810;SDS011;10566;52.928;10.522;2023-04-16T02:05:19;62.83;;;36.13;;
20810;SDS011;10566;52.928;10.522;2023-04-16T02:07:45;60.87;;;34.57;;
20810;SDS011;10566;52.928;10.522;2023-04-16T02:10:11;64.07;;;35.83;;
20810;SDS011;10566;52.928;10.522;2023-04-16T02:12:37;63.70;;;35.73;;
20810;SDS011;10566;52.928;10.522;2023-04-16T02:15:03;63.60;;;35.33;;
20810;SDS011;10566;52.928;10.522;2023-04-16T02:17:29;65.67;;;36.27;;
20810;SDS011;10566;52.928;10.522;2023-04-16T02:19:55;63.03;;;34.70;;
20810;SDS011;10566;52.928;10.522;2023-04-16T02:22:21;68.50;;;35.80;;
20810;SDS011;10566;52.928;10.522;2023-04-16T02:24:47;62.73;;;35.40;;
20810;SDS011;10566;52.928;10.522;2023-04-16T02:27:14;59.57;;;34.40;;
20810;SDS011;10566;52.928;10.522;2023-04-16T02:29:40;61.63;;;35.63;;
20810;SDS011;10566;52.928;10.522;2023-04-16T02:32:06;62.33;;;34.33;;
20810;SDS011;10566;52.928;10.522;2023-04-16T02:34:32;68.00;;;35.20;;
20810;SDS011;10566;52.928;10.522;2023-04-16T02:36:59;67.90;;;36.40;;
20810;SDS011;10566;52.928;10.522;2023-04-16T02:39:25;70.57;;;35.47;;
20810;SDS011;10566;52.928;10.522;2023-04-16T02:41:51;65.17;;;36.60;;
20810;SDS011;10566;52.928;10.522;2023-04-16T02:44:18;62.20;;;35.67;;
20810;SDS011;10566;52.928;10.522;2023-04-16T02:46:44;61.17;;;34.90;;
20810;SDS011;10566;52.928;10.522;2023-04-16T02:49:10;59.70;;;34.50;;
20810;SDS011;10566;52.928;10.522;2023-04-16T02:51:36;64.40;;;35.40;;
20810;SDS011;10566;52.928;10.522;2023-04-16T02:54:02;66.03;;;36.10;;
20810;SDS011;10566;52.928;10.522;2023-04-16T02:56:28;66.07;;;35.37;;
20810;SDS011;10566;52.928;10.522;2023-04-16T02:58:54;62.13;;;35.20;;
20810;SDS011;10566;52.928;10.522;2023-04-16T03:01:20;58.20;;;34.83;;
20810;SDS011;10566;52.928;10.522;2023-04-16T03:03:46;64.17;;;35.13;;
20810;SDS011;10566;52.928;10.522;2023-04-16T03:06:12;57.67;;;34.70;;
20810;SDS011;10566;52.928;10.522;2023-04-16T03:08:38;59.03;;;33.50;;
20810;SDS011;10566;52.928;10.522;2023-04-16T03:11:04;58.33;;;32.13;;
20810;SDS011;10566;52.928;10.522;2023-04-16T03:13:31;60.27;;;33.33;;
20810;SDS011;10566;52.928;10.522;2023-04-16T03:15:57;62.17;;;33.60;;
20810;SDS011;10566;52.928;10.522;2023-04-16T03:18:23;58.23;;;32.90;;
20810;SDS011;10566;52.928;10.522;2023-04-16T03:20:52;62.17;;;33.43;;
20810;SDS011;10566;52.928;10.522;2023-04-16T03:23:18;57.60;;;32.90;;
20810;SDS011;10566;52.928;10.522;2023-04-16T03:25:44;61.40;;;34.07;;
20810;SDS011;10566;52.928;10.522;2023-04-16T03:28:11;61.23;;;32.73;;
20810;SDS011;10566;52.928;10.522;2023-04-16T03:30:41;53.73;;;30.67;;
20810;SDS011;10566;52.928;10.522;2023-04-16T03:33:10;57.43;;;31.90;;
20810;SDS011;10566;52.928;10.522;2023-04-16T03:35:36;59.50;;;31.43;;
20810;SDS011;10566;52.928;10.522;2023-04-16T03:38:02;53.63;;;29.90;;
20810;SDS011;10566;52.928;10.522;2023-04-16T03:40:29;59.67;;;31.13;;
20810;SDS011;10566;52.928;10.522;2023-04-16T03:42:55;54.30;;;31.00;;
20810;SDS011;10566;52.928;10.522;2023-04-16T03:45:21;59.17;;;31.10;;
20810;SDS011;10566;52.928;10.522;2023-04-16T03:47:47;52.27;;;30.17;;
20810;SDS011;10566;52.928;10.522;2023-04-16T03:50:17;55.83;;;31.33;;
20810;SDS011;10566;52.928;10.522;2023-04-16T03:52:43;52.43;;;29.23;;
20810;SDS011;10566;52.928;10.522;2023-04-16T03:55:10;54.27;;;29.60;;
20810;SDS011;10566;52.928;10.522;2023-04-16T03:57:36;51.23;;;30.17;;
20810;SDS011;10566;52.928;10.522;2023-04-16T04:00:02;53.73;;;29.73;;
20810;SDS011;10566;52.928;10.522;2023-04-16T04:02:29;48.60;;;27.00;;
20810;SDS011;10566;52.928;10.522;2023-04-16T04:04:55;50.63;;;29.33;;
20810;SDS011;10566;52.928;10.522;2023-04-16T04:07:21;49.87;;;27.33;;
20810;SDS011;10566;52.928;10.522;2023-04-16T04:09:47;51.10;;;27.87;;
20810;SDS011;10566;52.928;10.522;2023-04-16T04:12:13;47.97;;;28.30;;
20810;SDS011;10566;52.928;10.522;2023-04-16T04:14:40;48.47;;;27.30;;
20810;SDS011;10566;52.928;10.522;2023-04-16T04:17:06;45.90;;;26.33;;
20810;SDS011;10566;52.928;10.522;2023-04-16T04:19:33;46.67;;;27.03;;
20810;SDS011;10566;52.928;10.522;2023-04-16T04:21:59;46.70;;;26.57;;
20810;SDS011;10566;52.928;10.522;2023-04-16T04:24:25;46.80;;;27.00;;
20810;SDS011;10566;52.928;10.522;2023-04-16T04:26:51;45.87;;;26.07;;
20810;SDS011;10566;52.928;10.522;2023-04-16T04:29:17;43.07;;;25.57;;
20810;SDS011;10566;52.928;10.522;2023-04-16T04:31:43;53.37;;;26.57;;
20810;SDS011;10566;52.928;10.522;2023-04-16T04:34:09;42.53;;;24.63;;
20810;SDS011;10566;52.928;10.522;2023-04-16T04:36:35;41.50;;;24.87;;
20810;SDS011;10566;52.928;10.522;2023-04-16T04:39:01;44.60;;;25.70;;
20810;SDS011;10566;52.928;10.522;2023-04-16T04:41:27;43.57;;;25.13;;
20810;SDS011;10566;52.928;10.522;2023-04-16T04:43:54;47.70;;;24.83;;
20810;SDS011;10566;52.928;10.522;2023-04-16T04:46:20;41.53;;;24.40;;
20810;SDS011;10566;52.928;10.522;2023-04-16T04:48:46;43.47;;;24.93;;
20810;SDS011;10566;52.928;10.522;2023-04-16T04:51:12;43.90;;;24.43;;
20810;SDS011;10566;52.928;10.522;2023-04-16T04:53:38;41.07;;;24.03;;
20810;SDS011;10566;52.928;10.522;2023-04-16T04:56:04;42.77;;;23.50;;
20810;SDS011;10566;52.928;10.522;2023-04-16T04:58:30;44.20;;;23.50;;
20810;SDS011;10566;52.928;10.522;2023-04-16T05:00:57;39.13;;;23.30;;
20810;SDS011;10566;52.928;10.522;2023-04-16T05:03:23;47.37;;;24.07;;
20810;SDS011;10566;52.928;10.522;2023-04-16T05:05:49;40.43;;;22.73;;
20810;SDS011;10566;52.928;10.522;2023-04-16T05:08:18;41.73;;;24.17;;
20810;SDS011;10566;52.928;10.522;2023-04-16T05:10:44;40.30;;;22.67;;
20810;SDS011;10566;52.928;10.522;2023-04-16T05:13:10;38.17;;;22.70;;
20810;SDS011;10566;52.928;10.522;2023-04-16T05:15:37;37.23;;;23.30;;
20810;SDS011;10566;52.928;10.522;2023-04-16T05:18:03;38.63;;;21.70;;
20810;SDS011;10566;52.928;10.522;2023-04-16T05:20:29;38.83;;;22.33;;
20810;SDS011;10566;52.928;10.522;2023-04-16T05:22:55;41.40;;;22.20;;
20810;SDS011;10566;52.928;10.522;2023-04-16T05:25:21;39.10;;;23.30;;
20810;SDS011;10566;52.928;10.522;2023-04-16T05:27:47;39.03;;;22.40;;
20810;SDS011;10566;52.928;10.522;2023-04-16T05:30:13;41.87;;;23.47;;
20810;SDS011;10566;52.928;10.522;2023-04-16T05:32:40;39.83;;;23.27;;
20810;SDS011;10566;52.928;10.522;2023-04-16T05:35:06;38.83;;;22.63;;
20810;SDS011;10566;52.928;10.522;2023-04-16T05:37:33;36.73;;;22.77;;
20810;SDS011;10566;52.928;10.522;2023-04-16T05:39:59;37.50;;;22.20;;
20810;SDS011;10566;52.928;10.522;2023-04-16T05:42:25;42.43;;;22.30;;
20810;SDS011;10566;52.928;10.522;2023-04-16T05:44:51;38.87;;;23.47;;
20810;SDS011;10566;52.928;10.522;2023-04-16T05:47:17;40.27;;;22.17;;
20810;SDS011;10566;52.928;10.522;2023-04-16T05:49:43;41.93;;;23.17;;
20810;SDS011;10566;52.928;10.522;2023-04-16T05:52:09;39.67;;;23.00;;
20810;SDS011;10566;52.928;10.522;2023-04-16T05:54:35;39.30;;;23.03;;
20810;SDS011;10566;52.928;10.522;2023-04-16T05:57:02;36.70;;;22.47;;
20810;SDS011;10566;52.928;10.522;2023-04-16T05:59:28;40.53;;;23.17;;
20810;SDS011;10566;52.928;10.522;2023-04-16T06:01:55;40.80;;;22.33;;
20810;SDS011;10566;52.928;10.522;2023-04-16T06:04:21;38.53;;;23.47;;
20810;SDS011;10566;52.928;10.522;2023-04-16T06:06:47;40.53;;;23.00;;
20810;SDS011;10566;52.928;10.522;2023-04-16T06:09:13;36.80;;;22.97;;
20810;SDS011;10566;52.928;10.522;2023-04-16T06:11:39;40.00;;;22.73;;
20810;SDS011;10566;52.928;10.522;2023-04-16T06:14:05;38.83;;;23.50;;
20810;SDS011;10566;52.928;10.522;2023-04-16T06:16:31;41.17;;;22.60;;
20810;SDS011;10566;52.928;10.522;2023-04-16T06:18:57;39.27;;;23.07;;
20810;SDS011;10566;52.928;10.522;2023-04-16T06:21:24;38.47;;;22.87;;
20810;SDS011;10566;52.928;10.522;2023-04-16T06:23:51;35.90;;;22.10;;
20810;SDS011;10566;52.928;10.522;2023-04-16T06:26:17;37.80;;;22.17;;
20810;SDS011;10566;52.928;10.522;2023-04-16T06:28:43;38.83;;;22.13;;
20810;SDS011;10566;52.928;10.522;2023-04-16T06:31:09;36.70;;;22.57;;
20810;SDS011;10566;52.928;10.522;2023-04-16T06:33:35;36.40;;;21.63;;
20810;SDS011;10566;52.928;10.522;2023-04-16T06:36:01;42.10;;;23.00;;
20810;SDS011;10566;52.928;10.522;2023-04-16T06:38:27;37.03;;;22.23;;
20810;SDS011;10566;52.928;10.522;2023-04-16T06:40:53;36.30;;;22.37;;
20810;SDS011;10566;52.928;10.522;2023-04-16T06:43:19;33.67;;;21.50;;
20810;SDS011;10566;52.928;10.522;2023-04-16T06:45:45;38.43;;;21.97;;
20810;SDS011;10566;52.928;10.522;2023-04-16T06:48:11;35.53;;;21.43;;
20810;SDS011;10566;52.928;10.522;2023-04-16T06:50:37;37.70;;;22.47;;
20810;SDS011;10566;52.928;10.522;2023-04-16T06:53:03;37.60;;;21.53;;
20810;SDS011;10566;52.928;10.522;2023-04-16T06:55:29;36.80;;;22.03;;
20810;SDS011;10566;52.928;10.522;2023-04-16T06:57:55;35.13;;;21.07;;
20810;SDS011;10566;52.928;10.522;2023-04-16T07:00:21;36.80;;;21.03;;
20810;SDS011;10566;52.928;10.522;2023-04-16T07:02:47;34.33;;;21.27;;
20810;SDS011;10566;52.928;10.522;2023-04-16T07:05:13;35.67;;;20.63;;
20810;SDS011;10566;52.928;10.522;2023-04-16T07:07:39;38.57;;;21.00;;
20810;SDS011;10566;52.928;10.522;2023-04-16T07:10:05;35.33;;;21.13;;
20810;SDS011;10566;52.928;10.522;2023-04-16T07:12:32;34.57;;;21.07;;
20810;SDS011;10566;52.928;10.522;2023-04-16T07:14:58;39.43;;;20.70;;
20810;SDS011;10566;52.928;10.522;2023-04-16T07:17:24;34.37;;;20.77;;
20810;SDS011;10566;52.928;10.522;2023-04-16T07:19:50;33.53;;;20.60;;
20810;SDS011;10566;52.928;10.522;2023-04-16T07:22:17;33.27;;;20.40;;
20810;SDS011;10566;52.928;10.522;2023-04-16T07:24:43;36.77;;;21.37;;
20810;SDS011;10566;52.928;10.522;2023-04-16T07:27:09;34.73;;;20.63;;
20810;SDS011;10566;52.928;10.522;2023-04-16T07:29:35;37.53;;;21.07;;
20810;SDS011;10566;52.928;10.522;2023-04-16T07:32:01;32.53;;;20.77;;
20810;SDS011;10566;52.928;10.522;2023-04-16T07:34:27;33.00;;;20.67;;
20810;SDS011;10566;52.928;10.522;2023-04-16T07:36:53;34.07;;;20.50;;
20810;SDS011;10566;52.928;10.522;2023-04-16T07:39:19;33.17;;;20.73;;
20810;SDS011;10566;52.928;10.522;2023-04-16T07:41:45;32.07;;;19.57;;
20810;SDS011;10566;52.928;10.522;2023-04-16T07:44:11;34.53;;;19.70;;
20810;SDS011;10566;52.928;10.522;2023-04-16T07:46:37;35.03;;;20.30;;
20810;SDS011;10566;52.928;10.522;2023-04-16T07:49:03;37.27;;;20.87;;
20810;SDS011;10566;52.928;10.522;2023-04-16T07:51:29;32.73;;;19.87;;
20810;SDS011;10566;52.928;10.522;2023-04-16T07:53:56;40.53;;;21.80;;
20810;SDS011;10566;52.928;10.522;2023-04-16T07:56:22;34.60;;;20.60;;
20810;SDS011;10566;52.928;10.522;2023-04-16T07:58:48;37.47;;;20.83;;
20810;SDS011;10566;52.928;10.522;2023-04-16T08:01:14;31.70;;;20.17;;
20810;SDS011;10566;52.928;10.522;2023-04-16T08:03:41;33.70;;;21.43;;
20810;SDS011;10566;52.928;10.522;2023-04-16T08:06:07;33.77;;;20.67;;
20810;SDS011;10566;52.928;10.522;2023-04-16T08:08:32;31.83;;;21.33;;
20810;SDS011;10566;52.928;10.522;2023-04-16T08:10:58;35.53;;;21.60;;
20810;SDS011;10566;52.928;10.522;2023-04-16T08:13:24;33.93;;;20.80;;
20810;SDS011;10566;52.928;10.522;2023-04-16T08:15:50;34.97;;;20.30;;
20810;SDS011;10566;52.928;10.522;2023-04-16T08:18:17;34.20;;;20.80;;
20810;SDS011;10566;52.928;10.522;2023-04-16T08:20:43;37.30;;;22.00;;
20810;SDS011;10566;52.928;10.522;2023-04-16T08:23:09;36.77;;;22.30;;
20810;SDS011;10566;52.928;10.522;2023-04-16T08:25:35;34.00;;;21.07;;
20810;SDS011;10566;52.928;10.522;2023-04-16T08:28:01;32.70;;;21.63;;
20810;SDS011;10566;52.928;10.522;2023-04-16T08:30:27;34.37;;;20.97;;
20810;SDS011;10566;52.928;10.522;2023-04-16T08:32:53;37.37;;;20.97;;
20810;SDS011;10566;52.928;10.522;2023-04-16T08:35:19;32.37;;;21.17;;
20810;SDS011;10566;52.928;10.522;2023-04-16T08:37:45;36.10;;;20.83;;
20810;SDS011;10566;52.928;10.522;2023-04-16T08:40:11;38.27;;;21.80;;
20810;SDS011;10566;52.928;10.522;2023-04-16T08:42:44;32.40;;;21.63;;
20810;SDS011;10566;52.928;10.522;2023-04-16T08:45:14;34.87;;;21.13;;
20810;SDS011;10566;52.928;10.522;2023-04-16T08:47:43;35.00;;;21.13;;
20810;SDS011;10566;52.928;10.522;2023-04-16T08:50:10;34.50;;;21.33;;
20810;SDS011;10566;52.928;10.522;2023-04-16T08:52:36;37.73;;;22.13;;
20810;SDS011;10566;52.928;10.522;2023-04-16T08:55:08;32.47;;;20.73;;
20810;SDS011;10566;52.928;10.522;2023-04-16T08:57:46;33.30;;;21.10;;
20810;SDS011;10566;52.928;10.522;2023-04-16T09:00:13;30.97;;;20.23;;
20810;SDS011;10566;52.928;10.522;2023-04-16T09:02:40;32.60;;;21.00;;
20810;SDS011;10566;52.928;10.522;2023-04-16T09:05:07;33.33;;;20.93;;
20810;SDS011;10566;52.928;10.522;2023-04-16T09:07:34;34.07;;;21.33;;
20810;SDS011;10566;52.928;10.522;2023-04-16T09:10:01;32.50;;;20.80;;
20810;SDS011;10566;52.928;10.522;2023-04-16T09:12:29;32.23;;;20.30;;
20810;SDS011;10566;52.928;10.522;2023-04-16T09:14:55;35.13;;;20.23;;
20810;SDS011;10566;52.928;10.522;2023-04-16T09:17:23;35.53;;;20.30;;
20810;SDS011;10566;52.928;10.522;2023-04-16T09:19:50;28.43;;;19.87;;
20810;SDS011;10566;52.928;10.522;2023-04-16T09:22:16;29.60;;;19.40;;
20810;SDS011;10566;52.928;10.522;2023-04-16T09:24:42;31.70;;;19.47;;
20810;SDS011;10566;52.928;10.522;2023-04-16T09:27:08;32.37;;;20.03;;
20810;SDS011;10566;52.928;10.522;2023-04-16T09:29:35;29.53;;;19.50;;
20810;SDS011;10566;52.928;10.522;2023-04-16T09:32:02;28.40;;;19.03;;
20810;SDS011;10566;52.928;10.522;2023-04-16T09:34:28;34.13;;;19.40;;
20810;SDS011;10566;52.928;10.522;2023-04-16T09:36:57;27.43;;;19.17;;
20810;SDS011;10566;52.928;10.522;2023-04-16T09:39:38;30.80;;;19.13;;
20810;SDS011;10566;52.928;10.522;2023-04-16T09:42:04;29.30;;;18.77;;
20810;SDS011;10566;52.928;10.522;2023-04-16T09:44:37;30.73;;;19.90;;
20810;SDS011;10566;52.928;10.522;2023-04-16T09:47:06;29.47;;;19.57;;
20810;SDS011;10566;52.928;10.522;2023-04-16T09:49:34;29.37;;;19.17;;
20810;SDS011;10566;52.928;10.522;2023-04-16T09:52:00;28.93;;;18.70;;
20810;SDS011;10566;52.928;10.522;2023-04-16T09:54:26;30.27;;;19.47;;
20810;SDS011;10566;52.928;10.522;2023-04-16T09:56:54;29.50;;;18.87;;
20810;SDS011;10566;52.928;10.522;2023-04-16T09:59:22;31.37;;;20.17;;
20810;SDS011;10566;52.928;10.522;2023-04-16T10:01:49;30.20;;;18.37;;
20810;SDS011;10566;52.928;10.522;2023-04-16T10:04:17;30.77;;;19.13;;
20810;SDS011;10566;52.928;10.522;2023-04-16T10:06:44;25.60;;;17.90;;
20810;SDS011;10566;52.928;10.522;2023-04-16T10:09:30;26.10;;;18.40;;
20810;SDS011;10566;52.928;10.522;2023-04-16T10:11:56;29.73;;;18.20;;
20810;SDS011;10566;52.928;10.522;2023-04-16T10:14:22;28.30;;;18.47;;
20810;SDS011;10566;52.928;10.522;2023-04-16T10:16:48;25.23;;;17.53;;
20810;SDS011;10566;52.928;10.522;2023-04-16T10:19:15;30.93;;;18.50;;
20810;SDS011;10566;52.928;10.522;2023-04-16T10:21:41;27.43;;;18.30;;
20810;SDS011;10566;52.928;10.522;2023-04-16T10:24:07;31.57;;;18.60;;
20810;SDS011;10566;52.928;10.522;2023-04-16T10:26:34;28.87;;;18.20;;
20810;SDS011;10566;52.928;10.522;2023-04-16T10:29:00;30.70;;;17.60;;
20810;SDS011;10566;52.928;10.522;2023-04-16T10:31:27;27.70;;;18.70;;
20810;SDS011;10566;52.928;10.522;2023-04-16T10:33:53;28.03;;;17.60;;
20810;SDS011;10566;52.928;10.522;2023-04-16T10:36:24;28.33;;;19.03;;
20810;SDS011;10566;52.928;10.522;2023-04-16T10:38:51;29.40;;;18.60;;
20810;SDS011;10566;52.928;10.522;2023-04-16T10:41:20;27.37;;;18.03;;
20810;SDS011;10566;52.928;10.522;2023-04-16T10:43:47;28.63;;;18.20;;
20810;SDS011;10566;52.928;10.522;2023-04-16T10:46:25;27.93;;;18.43;;
20810;SDS011;10566;52.928;10.522;2023-04-16T10:48:52;29.13;;;18.57;;
20810;SDS011;10566;52.928;10.522;2023-04-16T10:51:22;28.80;;;18.33;;
20810;SDS011;10566;52.928;10.522;2023-04-16T10:53:48;26.60;;;18.00;;
20810;SDS011;10566;52.928;10.522;2023-04-16T10:56:16;28.37;;;17.27;;
20810;SDS011;10566;52.928;10.522;2023-04-16T10:58:47;33.97;;;17.83;;
20810;SDS011;10566;52.928;10.522;2023-04-16T11:01:13;29.00;;;18.30;;
20810;SDS011;10566;52.928;10.522;2023-04-16T11:03:47;31.23;;;18.63;;
20810;SDS011;10566;52.928;10.522;2023-04-16T11:06:14;26.90;;;18.23;;
20810;SDS011;10566;52.928;10.522;2023-04-16T11:08:41;24.77;;;17.57;;
20810;SDS011;10566;52.928;10.522;2023-04-16T11:11:09;28.27;;;17.60;;
20810;SDS011;10566;52.928;10.522;2023-04-16T11:13:35;26.37;;;17.80;;
20810;SDS011;10566;52.928;10.522;2023-04-16T11:16:02;26.90;;;18.30;;
20810;SDS011;10566;52.928;10.522;2023-04-16T11:18:28;26.07;;;17.47;;
20810;SDS011;10566;52.928;10.522;2023-04-16T11:20:54;26.33;;;17.10;;
20810;SDS011;10566;52.928;10.522;2023-04-16T11:23:20;26.33;;;16.90;;
20810;SDS011;10566;52.928;10.522;2023-04-16T11:25:46;24.53;;;17.73;;
20810;SDS011;10566;52.928;10.522;2023-04-16T11:28:15;25.57;;;16.77;;
20810;SDS011;10566;52.928;10.522;2023-04-16T11:30:41;26.83;;;16.90;;
20810;SDS011;10566;52.928;10.522;2023-04-16T11:33:08;24.60;;;17.13;;
20810;SDS011;10566;52.928;10.522;2023-04-16T11:35:35;23.03;;;16.03;;
20810;SDS011;10566;52.928;10.522;2023-04-16T11:38:03;22.03;;;15.23;;
20810;SDS011;10566;52.928;10.522;2023-04-16T11:40:31;23.27;;;15.30;;
20810;SDS011;10566;52.928;10.522;2023-04-16T11:43:01;22.67;;;15.93;;
20810;SDS011;10566;52.928;10.522;2023-04-16T11:45:27;22.27;;;15.30;;
20810;SDS011;10566;52.928;10.522;2023-04-16T11:47:53;23.70;;;15.53;;
20810;SDS011;10566;52.928;10.522;2023-04-16T11:50:22;25.07;;;15.30;;
20810;SDS011;10566;52.928;10.522;2023-04-16T11:52:49;20.23;;;14.93;;
20810;SDS011;10566;52.928;10.522;2023-04-16T11:55:15;21.47;;;15.07;;
20810;SDS011;10566;52.928;10.522;2023-04-16T11:57:41;20.93;;;15.57;;
20810;SDS011;10566;52.928;10.522;2023-04-16T12:00:08;23.37;;;15.77;;
20810;SDS011;10566;52.928;10.522;2023-04-16T12:02:44;25.23;;;16.00;;
20810;SDS011;10566;52.928;10.522;2023-04-16T12:07:56;23.57;;;14.90;;
20810;SDS011;10566;52.928;10.522;2023-04-16T12:10:22;20.30;;;14.77;;
20810;SDS011;10566;52.928;10.522;2023-04-16T12:12:48;19.67;;;14.40;;
20810;SDS011;10566;52.928;10.522;2023-04-16T12:15:14;22.33;;;15.30;;
20810;SDS011;10566;52.928;10.522;2023-04-16T12:17:40;20.47;;;14.10;;
20810;SDS011;10566;52.928;10.522;2023-04-16T12:20:13;20.07;;;14.07;;
20810;SDS011;10566;52.928;10.522;2023-04-16T12:22:42;22.87;;;14.20;;
20810;SDS011;10566;52.928;10.522;2023-04-16T12:25:13;22.03;;;14.83;;
20810;SDS011;10566;52.928;10.522;2023-04-16T12:27:40;18.63;;;13.50;;
20810;SDS011;10566;52.928;10.522;2023-04-16T12:30:07;20.43;;;14.07;;
20810;SDS011;10566;52.928;10.522;2023-04-16T12:32:33;23.03;;;14.40;;
20810;SDS011;10566;52.928;10.522;2023-04-16T12:34:59;21.53;;;14.67;;
20810;SDS011;10566;52.928;10.522;2023-04-16T12:37:25;18.20;;;12.63;;
20810;SDS011;10566;52.928;10.522;2023-04-16T12:39:52;18.63;;;12.80;;
20810;SDS011;10566;52.928;10.522;2023-04-16T12:42:18;17.60;;;12.53;;
20810;SDS011;10566;52.928;10.522;2023-04-16T12:44:44;21.57;;;13.00;;
20810;SDS011;10566;52.928;10.522;2023-04-16T12:47:10;18.03;;;12.67;;
20810;SDS011;10566;52.928;10.522;2023-04-16T12:49:36;19.03;;;12.83;;
20810;SDS011;10566;52.928;10.522;2023-04-16T12:52:02;20.27;;;13.07;;
20810;SDS011;10566;52.928;10.522;2023-04-16T12:54:28;19.20;;;11.97;;
20810;SDS011;10566;52.928;10.522;2023-04-16T12:56:55;17.87;;;11.93;;
20810;SDS011;10566;52.928;10.522;2023-04-16T12:59:21;15.70;;;10.67;;
20810;SDS011;10566;52.928;10.522;2023-04-16T13:01:47;16.03;;;10.53;;
20810;SDS011;10566;52.928;10.522;2023-04-16T13:04:13;15.13;;;10.77;;
20810;SDS011;10566;52.928;10.522;2023-04-16T13:06:39;15.97;;;10.90;;
20810;SDS011;10566;52.928;10.522;2023-04-16T13:09:05;17.13;;;11.10;;
20810;SDS011;10566;52.928;10.522;2023-04-16T13:11:31;16.77;;;10.57;;
20810;SDS011;10566;52.928;10.522;2023-04-16T13:13:57;20.07;;;11.17;;
20810;SDS011;10566;52.928;10.522;2023-04-16T13:16:23;18.37;;;10.67;;
20810;SDS011;10566;52.928;10.522;2023-04-16T13:18:50;16.47;;;10.60;;
20810;SDS011;10566;52.928;10.522;2023-04-16T13:21:16;15.77;;;10.77;;
20810;SDS011;10566;52.928;10.522;2023-04-16T13:23:42;14.73;;;10.40;;
20810;SDS011;10566;52.928;10.522;2023-04-16T13:26:08;17.00;;;10.67;;
20810;SDS011;10566;52.928;10.522;2023-04-16T13:28:34;16.00;;;11.00;;
20810;SDS011;10566;52.928;10.522;2023-04-16T13:31:00;17.03;;;10.20;;
20810;SDS011;10566;52.928;10.522;2023-04-16T13:33:26;16.00;;;10.47;;
20810;SDS011;10566;52.928;10.522;2023-04-16T13:35:52;17.60;;;11.17;;
20810;SDS011;10566;52.928;10.522;2023-04-16T13:38:18;15.13;;;10.33;;
20810;SDS011;10566;52.928;10.522;2023-04-16T13:40:44;16.00;;;10.70;;
20810;SDS011;10566;52.928;10.522;2023-04-16T13:43:10;13.43;;;9.90;;
20810;SDS011;10566;52.928;10.522;2023-04-16T13:45:37;17.97;;;10.10;;
20810;SDS011;10566;52.928;10.522;2023-04-16T13:48:04;15.67;;;10.67;;
20810;SDS011;10566;52.928;10.522;2023-04-16T13:50:30;15.33;;;10.27;;
20810;SDS011;10566;52.928;10.522;2023-04-16T13:52:56;15.93;;;10.37;;
20810;SDS011;10566;52.928;10.522;2023-04-16T13:55:22;16.30;;;10.50;;
20810;SDS011;10566;52.928;10.522;2023-04-16T13:57:48;15.77;;;10.53;;
20810;SDS011;10566;52.928;10.522;2023-04-16T14:00:16;16.53;;;10.33;;
20810;SDS011;10566;52.928;10.522;2023-04-16T14:02:42;17.13;;;10.17;;
20810;SDS011;10566;52.928;10.522;2023-04-16T14:05:10;16.00;;;9.87;;
20810;SDS011;10566;52.928;10.522;2023-04-16T14:07:36;15.47;;;9.70;;